Prostejov, Czech Republic
Current Conditions -  °F | °C
As of 3:30 PM on Sunday 23 Nov 2014 (Local Time) from LKTB Reporting Station
Broken Clouds Broken Clouds  
Wind Chill: 39°   Ceiling: 2000
Heat Index: 43°   Visibility: 6mi
Dew Point: 36°   Wind: 6mph
Humidity: 76%   Direction: 140°SE
Pressure: 30.36"   Gusts: NA
Location:  49.48°N, 17.12°E
Report Text: LKTB 231330Z 14005KT 110V170 9999 BKN020 06/02 Q1028 NOSIG
Loading
Personal Weather Stations






























Interactive Weather Map New forecast layout! Learn more

10-Day Weather Forecast

Advertisements
Track Severe Weather on mobile